createdAt,value
2023-01-08T00:00:07.821Z,81.30
2023-01-08T00:02:34.932Z,81.50
2023-01-08T00:05:02.086Z,81.30
2023-01-08T00:07:29.244Z,81.60
2023-01-08T00:09:56.369Z,81.90
2023-01-08T00:12:23.529Z,82.10
2023-01-08T00:14:50.635Z,82.60
2023-01-08T00:17:17.804Z,82.00
2023-01-08T00:19:44.867Z,82.20
2023-01-08T00:22:11.966Z,82.40
2023-01-08T00:24:39.060Z,82.50
2023-01-08T00:27:06.152Z,82.60
2023-01-08T00:29:33.209Z,82.20
2023-01-08T00:32:00.330Z,82.20
2023-01-08T00:34:27.392Z,82.10
2023-01-08T00:36:54.540Z,82.10
2023-01-08T00:39:21.624Z,82.00
2023-01-08T00:41:49.637Z,81.80
2023-01-08T00:44:16.689Z,81.70
2023-01-08T00:46:43.792Z,81.70
2023-01-08T00:49:10.840Z,82.60
2023-01-08T00:51:37.884Z,82.20
2023-01-08T00:54:05.053Z,82.20
2023-01-08T00:56:32.129Z,82.40
2023-01-08T00:58:59.221Z,82.50
2023-01-08T01:01:26.434Z,82.40
2023-01-08T01:03:53.584Z,82.40
2023-01-08T01:06:20.729Z,82.20
2023-01-08T01:08:47.893Z,82.20
2023-01-08T01:11:27.107Z,82.20
2023-01-08T01:13:56.135Z,82.10
2023-01-08T01:16:23.720Z,83.00
2023-01-08T01:18:52.281Z,82.90
2023-01-08T01:21:28.776Z,82.90
2023-01-08T01:23:57.584Z,83.40
2023-01-08T01:26:25.644Z,83.90
2023-01-08T01:28:55.070Z,83.90
2023-01-08T01:31:23.214Z,84.30
2023-01-08T01:33:50.971Z,84.10
2023-01-08T01:36:19.660Z,84.30
2023-01-08T01:38:49.050Z,84.30
2023-01-08T01:41:24.552Z,84.40
2023-01-08T01:43:52.617Z,83.40
2023-01-08T01:46:39.562Z,82.90
2023-01-08T01:49:11.269Z,82.50
2023-01-08T01:51:41.273Z,82.30
2023-01-08T01:54:10.977Z,82.50
2023-01-08T01:56:38.105Z,82.20
2023-01-08T01:59:06.112Z,82.10
2023-01-08T02:01:34.408Z,82.10
2023-01-08T02:04:01.651Z,82.00
2023-01-08T02:06:36.371Z,82.80
2023-01-08T02:09:06.272Z,82.30
2023-01-08T02:11:47.364Z,82.20
2023-01-08T02:14:35.661Z,82.10
2023-01-08T02:17:12.404Z,81.90
2023-01-08T02:20:02.476Z,81.70
2023-01-08T02:23:04.469Z,81.60
2023-01-08T02:25:53.589Z,81.30
2023-01-08T02:28:22.462Z,81.30
2023-01-08T02:30:49.700Z,81.30
2023-01-08T02:33:16.838Z,81.20
2023-01-08T02:36:14.563Z,81.10
2023-01-08T02:38:54.195Z,81.30
2023-01-08T02:41:26.670Z,80.90
2023-01-08T02:43:56.969Z,81.70
2023-01-08T02:46:27.916Z,83.10
2023-01-08T02:49:02.624Z,84.20
2023-01-08T02:51:37.179Z,84.80
2023-01-08T02:54:09.148Z,84.50
2023-01-08T02:56:41.786Z,85.10
2023-01-08T02:59:12.835Z,85.30
2023-01-08T03:01:41.322Z,85.50
2023-01-08T03:04:14.430Z,86.20
2023-01-08T03:06:42.376Z,86.20
2023-01-08T03:09:09.991Z,86.10
2023-01-08T03:11:45.690Z,86.00
2023-01-08T03:14:28.363Z,86.10
2023-01-08T03:17:05.390Z,85.80
2023-01-08T03:19:44.494Z,85.80
2023-01-08T03:22:16.035Z,85.70
2023-01-08T03:24:46.055Z,85.80
2023-01-08T03:27:18.431Z,85.60
2023-01-08T03:29:49.062Z,85.30
2023-01-08T03:32:18.565Z,84.90
2023-01-08T03:34:48.547Z,85.10
2023-01-08T03:37:20.324Z,85.10
2023-01-08T03:40:01.730Z,85.00
2023-01-08T03:42:31.467Z,84.40
2023-01-08T03:44:59.915Z,84.70
2023-01-08T03:47:30.267Z,84.60
2023-01-08T03:50:00.787Z,84.20
2023-01-08T03:52:30.134Z,84.20
2023-01-08T03:54:57.220Z,84.20
2023-01-08T03:57:24.335Z,83.80
2023-01-08T03:59:51.498Z,83.50
2023-01-08T04:02:18.777Z,82.80
2023-01-08T04:04:45.969Z,82.60
2023-01-08T04:07:13.102Z,82.40
2023-01-08T04:09:40.229Z,82.20
2023-01-08T04:12:07.325Z,82.10
2023-01-08T04:14:34.449Z,81.90
2023-01-08T04:17:01.617Z,81.90
2023-01-08T04:19:28.712Z,81.70
2023-01-08T04:21:55.814Z,81.60
2023-01-08T04:24:22.901Z,81.40
2023-01-08T04:26:49.961Z,82.70
2023-01-08T04:29:17.017Z,82.10
2023-01-08T04:31:44.116Z,81.70
2023-01-08T04:34:11.321Z,81.60
2023-01-08T04:36:38.595Z,81.50
2023-01-08T04:39:05.680Z,81.20
2023-01-08T04:41:32.728Z,81.20
2023-01-08T04:43:59.781Z,81.70
2023-01-08T04:46:26.919Z,82.20
2023-01-08T04:48:54.073Z,82.70
2023-01-08T04:51:22.054Z,83.30
2023-01-08T04:53:49.114Z,83.20
2023-01-08T04:56:16.178Z,83.20
2023-01-08T04:58:43.523Z,84.00
2023-01-08T05:01:21.292Z,84.20
2023-01-08T05:03:52.774Z,83.90
2023-01-08T05:06:19.806Z,84.40
2023-01-08T05:08:46.962Z,85.00
2023-01-08T05:11:14.037Z,85.50
2023-01-08T05:13:41.227Z,85.30
2023-01-08T05:16:08.468Z,85.50
2023-01-08T05:18:35.584Z,85.80
2023-01-08T05:21:04.847Z,85.80
2023-01-08T05:23:33.375Z,85.80
2023-01-08T05:26:02.205Z,85.70
2023-01-08T05:28:30.080Z,85.60
2023-01-08T05:30:58.120Z,85.50
2023-01-08T05:33:25.844Z,85.60
2023-01-08T05:35:52.997Z,85.50
2023-01-08T05:38:20.215Z,85.40
2023-01-08T05:40:47.368Z,85.30
2023-01-08T05:43:14.489Z,85.10
2023-01-08T05:45:41.604Z,84.70
2023-01-08T05:48:08.793Z,84.50
2023-01-08T05:50:36.262Z,84.10
2023-01-08T05:53:07.390Z,84.30
2023-01-08T05:55:35.062Z,84.00
2023-01-08T05:58:03.212Z,83.80
2023-01-08T06:00:30.839Z,83.40
2023-01-08T06:02:58.182Z,82.50
2023-01-08T06:05:25.496Z,81.80
2023-01-08T06:07:52.603Z,82.00
2023-01-08T06:10:19.682Z,82.00
2023-01-08T06:12:47.180Z,81.20
2023-01-08T06:15:14.291Z,81.20
2023-01-08T06:17:41.949Z,81.20
2023-01-08T06:20:09.830Z,81.10
2023-01-08T06:22:36.932Z,81.00
2023-01-08T06:25:04.620Z,80.90
2023-01-08T06:27:31.675Z,80.80
2023-01-08T06:29:58.815Z,80.90
2023-01-08T06:32:25.861Z,80.90
2023-01-08T06:34:53.008Z,81.30
2023-01-08T06:37:20.164Z,81.60
2023-01-08T06:39:47.220Z,81.40
2023-01-08T06:42:14.287Z,81.50
2023-01-08T06:44:41.368Z,81.70
2023-01-08T06:47:08.513Z,81.50
2023-01-08T06:49:35.596Z,81.50
2023-01-08T06:52:02.682Z,81.60
2023-01-08T06:54:29.744Z,81.60
2023-01-08T06:56:56.818Z,81.40
2023-01-08T06:59:23.883Z,81.10
2023-01-08T07:01:51.267Z,81.00
2023-01-08T07:04:19.136Z,80.80
2023-01-08T07:06:46.849Z,80.80
2023-01-08T07:09:14.869Z,80.60
2023-01-08T07:11:42.341Z,80.60
2023-01-08T07:14:09.523Z,80.50
2023-01-08T07:16:36.690Z,80.20
2023-01-08T07:19:03.847Z,79.90
2023-01-08T07:21:31.329Z,79.60
2023-01-08T07:23:59.451Z,79.50
2023-01-08T07:26:27.610Z,79.30
2023-01-08T07:28:54.763Z,78.90
2023-01-08T07:31:21.928Z,78.80
2023-01-08T07:33:49.098Z,79.00
2023-01-08T07:36:16.395Z,79.40
2023-01-08T07:38:43.568Z,78.50
2023-01-08T07:41:10.711Z,79.20
2023-01-08T07:43:37.787Z,77.90
2023-01-08T07:46:05.267Z,77.10
2023-01-08T07:48:32.501Z,77.50
2023-01-08T07:51:07.478Z,77.80
2023-01-08T07:53:35.781Z,77.40
2023-01-08T07:56:05.595Z,77.60
2023-01-08T07:58:33.877Z,78.30
2023-01-08T08:01:01.943Z,78.70
2023-01-08T08:03:29.105Z,78.90
2023-01-08T08:05:56.190Z,78.90
2023-01-08T08:08:23.262Z,79.20
2023-01-08T08:10:50.369Z,79.00
2023-01-08T08:13:17.485Z,79.30
2023-01-08T08:15:44.717Z,79.40
2023-01-08T08:18:11.881Z,79.40
2023-01-08T08:20:39.405Z,79.50
2023-01-08T08:23:10.721Z,80.10
2023-01-08T08:25:37.845Z,79.70
2023-01-08T08:28:05.504Z,79.80
2023-01-08T08:30:34.808Z,80.00
2023-01-08T08:33:04.132Z,80.30
2023-01-08T08:35:32.199Z,80.50
2023-01-08T08:37:59.801Z,81.40
2023-01-08T08:40:27.248Z,81.00
2023-01-08T08:43:02.401Z,81.20
2023-01-08T08:45:30.350Z,81.30
2023-01-08T08:47:57.408Z,81.30
2023-01-08T08:50:24.828Z,81.30
2023-01-08T08:53:00.253Z,81.30
2023-01-08T08:55:28.711Z,81.30
2023-01-08T08:58:04.275Z,81.20
2023-01-08T09:00:31.738Z,81.30
2023-01-08T09:02:59.013Z,81.20
2023-01-08T09:05:26.257Z,81.20
2023-01-08T09:07:54.269Z,81.30
2023-01-08T09:10:22.179Z,81.30
2023-01-08T09:12:49.306Z,81.30
2023-01-08T09:15:16.458Z,81.30
2023-01-08T09:17:43.508Z,81.10
2023-01-08T09:20:11.965Z,80.10
2023-01-08T09:22:39.105Z,80.40
2023-01-08T09:25:06.373Z,80.20
2023-01-08T09:27:33.439Z,80.00
2023-01-08T09:30:00.589Z,80.20
2023-01-08T09:32:27.639Z,80.20
2023-01-08T09:34:54.704Z,80.10
2023-01-08T09:37:23.223Z,79.90
2023-01-08T09:39:57.650Z,79.70
2023-01-08T09:42:30.457Z,79.50
2023-01-08T09:44:59.194Z,79.30
2023-01-08T09:47:32.569Z,79.30
2023-01-08T09:50:03.264Z,79.20
2023-01-08T09:52:32.441Z,79.50
2023-01-08T09:55:02.463Z,79.00
2023-01-08T09:57:29.674Z,78.90
2023-01-08T09:59:58.033Z,79.10
2023-01-08T10:02:26.393Z,79.10
2023-01-08T10:04:58.423Z,79.30
2023-01-08T10:07:28.431Z,79.60
2023-01-08T10:09:55.862Z,79.70
2023-01-08T10:12:28.749Z,79.60
2023-01-08T10:15:03.205Z,80.20
2023-01-08T10:17:41.459Z,79.70
2023-01-08T10:20:25.834Z,79.80
2023-01-08T10:22:54.228Z,79.50
2023-01-08T10:25:24.368Z,79.60
2023-01-08T10:27:54.782Z,79.90
2023-01-08T10:30:28.477Z,79.90
2023-01-08T10:32:57.789Z,80.20
2023-01-08T10:35:35.025Z,81.10
2023-01-08T10:38:02.349Z,81.60
2023-01-08T10:40:45.475Z,81.70
2023-01-08T10:43:17.037Z,81.50
2023-01-08T10:45:54.393Z,81.40
2023-01-08T10:48:21.737Z,81.20
2023-01-08T10:50:48.898Z,81.70
2023-01-08T10:53:25.234Z,82.30
2023-01-08T10:56:01.965Z,82.20
2023-01-08T10:58:30.384Z,82.40
2023-01-08T11:01:29.225Z,82.10
2023-01-08T11:03:59.567Z,82.00
2023-01-08T11:06:29.882Z,82.30
2023-01-08T11:08:59.690Z,82.30
2023-01-08T11:11:36.981Z,82.50
2023-01-08T11:14:26.531Z,82.70
2023-01-08T11:16:54.875Z,83.30
2023-01-08T11:19:28.844Z,82.80
2023-01-08T11:22:04.375Z,83.00
2023-01-08T11:24:34.128Z,83.20
2023-01-08T11:27:11.593Z,83.70
2023-01-08T11:30:26.817Z,83.10
2023-01-08T11:32:59.823Z,83.20
2023-01-08T11:35:39.107Z,83.70
2023-01-08T11:38:08.114Z,84.10
2023-01-08T11:40:51.956Z,83.90
2023-01-08T11:43:30.493Z,85.00
2023-01-08T11:46:12.913Z,84.50
2023-01-08T11:49:06.181Z,84.40
2023-01-08T11:51:54.967Z,84.30
2023-01-08T11:54:37.329Z,84.10
2023-01-08T11:57:32.116Z,84.10
2023-01-08T12:00:14.531Z,84.00
2023-01-08T12:02:53.488Z,83.90
2023-01-08T12:05:36.405Z,83.60
2023-01-08T12:08:07.268Z,83.50
2023-01-08T12:10:57.266Z,83.70
2023-01-08T12:13:53.599Z,83.60
2023-01-08T12:16:58.553Z,84.20
2023-01-08T12:19:50.287Z,83.60
2023-01-08T12:22:35.324Z,83.90
2023-01-08T12:25:32.765Z,83.80
2023-01-08T12:28:30.917Z,83.40
2023-01-08T12:31:04.314Z,83.50
2023-01-08T12:33:39.907Z,83.80
2023-01-08T12:36:21.371Z,83.70
2023-01-08T12:39:02.218Z,83.70
2023-01-08T12:41:33.678Z,84.10
2023-01-08T12:44:06.294Z,84.20
2023-01-08T12:46:35.638Z,83.90
2023-01-08T12:49:06.033Z,84.40
2023-01-08T12:52:02.321Z,83.20
2023-01-08T12:54:53.733Z,83.00
2023-01-08T12:57:26.562Z,82.80
2023-01-08T13:00:01.992Z,82.70
2023-01-08T13:02:52.122Z,81.60
2023-01-08T13:05:19.195Z,81.20
2023-01-08T13:07:49.066Z,81.30
2023-01-08T13:10:40.417Z,81.80
2023-01-08T13:13:23.454Z,81.00
2023-01-08T13:15:50.732Z,80.80
2023-01-08T13:18:20.139Z,79.90
2023-01-08T13:20:58.752Z,79.90
2023-01-08T13:23:31.071Z,80.00
2023-01-08T13:26:00.111Z,80.00
2023-01-08T13:28:35.288Z,80.10
2023-01-08T13:31:20.630Z,80.00
2023-01-08T13:33:54.376Z,80.00
2023-01-08T13:36:31.931Z,78.00
2023-01-08T13:39:06.452Z,77.90
2023-01-08T13:41:41.349Z,77.90
2023-01-08T13:44:29.858Z,76.80
2023-01-08T13:46:59.920Z,75.30
2023-01-08T13:49:49.955Z,72.90
2023-01-08T13:52:38.871Z,75.70
2023-01-08T13:55:14.364Z,78.10
2023-01-08T13:57:46.519Z,78.70
2023-01-08T14:00:42.611Z,79.10
2023-01-08T14:03:35.424Z,79.10
2023-01-08T14:06:17.574Z,79.30
2023-01-08T14:09:03.178Z,80.20
2023-01-08T14:11:48.206Z,80.10
2023-01-08T14:14:18.540Z,80.10
2023-01-08T14:16:47.646Z,80.10
2023-01-08T14:19:34.728Z,81.10
2023-01-08T14:22:01.873Z,81.00
2023-01-08T14:24:29.028Z,81.70
2023-01-08T14:26:58.362Z,81.20
2023-01-08T14:29:30.689Z,80.70
2023-01-08T14:32:00.423Z,80.80
2023-01-08T14:34:30.754Z,81.10
2023-01-08T14:36:58.004Z,81.30
2023-01-08T14:39:33.562Z,81.70
2023-01-08T14:42:24.954Z,81.90
2023-01-08T14:45:01.913Z,82.00
2023-01-08T14:47:34.200Z,81.20
2023-01-08T14:50:01.571Z,81.80
2023-01-08T14:52:28.996Z,81.40
2023-01-08T14:55:03.107Z,82.20
2023-01-08T14:57:31.364Z,82.40
2023-01-08T15:00:01.476Z,82.20
2023-01-08T15:02:33.859Z,82.40
2023-01-08T15:05:03.377Z,82.20
2023-01-08T15:07:30.555Z,82.20
2023-01-08T15:10:01.174Z,82.10
2023-01-08T15:12:31.400Z,82.10
2023-01-08T15:15:24.779Z,82.00
2023-01-08T15:17:51.897Z,81.90
2023-01-08T15:20:20.508Z,81.80
2023-01-08T15:22:47.920Z,81.90
2023-01-08T15:25:25.542Z,81.90
2023-01-08T15:28:00.461Z,81.90
2023-01-08T15:30:37.660Z,81.80
2023-01-08T15:33:21.260Z,81.70
2023-01-08T15:35:49.706Z,81.60
2023-01-08T15:38:20.613Z,81.60
2023-01-08T15:40:48.488Z,81.60
2023-01-08T15:43:18.029Z,81.70
2023-01-08T15:45:47.409Z,81.40
2023-01-08T15:48:14.821Z,81.50
2023-01-08T15:50:44.234Z,81.40
2023-01-08T15:53:22.220Z,81.00
2023-01-08T15:55:49.605Z,80.30
2023-01-08T15:58:17.512Z,80.40
2023-01-08T16:00:46.435Z,78.70
2023-01-08T16:03:14.922Z,78.50
2023-01-08T16:05:42.099Z,79.20
2023-01-08T16:08:10.707Z,80.50
2023-01-08T16:10:38.200Z,79.60
2023-01-08T16:13:05.286Z,79.80
2023-01-08T16:15:32.522Z,80.50
2023-01-08T16:17:59.683Z,80.90
2023-01-08T16:20:27.220Z,81.40
2023-01-08T16:22:55.043Z,81.80
2023-01-08T16:25:23.300Z,82.00
2023-01-08T16:27:50.769Z,82.00
2023-01-08T16:30:17.935Z,82.60
2023-01-08T16:32:46.608Z,82.90
2023-01-08T16:35:13.739Z,83.30
2023-01-08T16:37:40.895Z,82.90
2023-01-08T16:40:09.413Z,83.20
2023-01-08T16:42:36.908Z,83.60
2023-01-08T16:45:05.021Z,83.60
2023-01-08T16:47:36.166Z,83.80
2023-01-08T16:50:03.356Z,83.30
2023-01-08T16:52:30.462Z,83.60
2023-01-08T16:54:57.747Z,84.20
2023-01-08T16:57:24.814Z,84.90
2023-01-08T16:59:51.853Z,83.70
2023-01-08T17:02:19.236Z,84.10
2023-01-08T17:04:46.271Z,84.10
2023-01-08T17:07:14.228Z,84.20
2023-01-08T17:09:41.418Z,84.40
2023-01-08T17:12:08.460Z,84.50
2023-01-08T17:14:36.580Z,84.50
2023-01-08T17:17:03.665Z,84.40
2023-01-08T17:19:30.723Z,84.30
2023-01-08T17:21:57.816Z,84.00
2023-01-08T17:24:24.871Z,84.20
2023-01-08T17:26:51.906Z,84.40
2023-01-08T17:29:18.959Z,83.90
2023-01-08T17:31:46.072Z,84.20
2023-01-08T17:34:13.978Z,84.70
2023-01-08T17:36:41.416Z,83.90
2023-01-08T17:39:09.802Z,83.90
2023-01-08T17:41:55.472Z,83.90
2023-01-08T17:44:23.233Z,83.70
2023-01-08T17:46:50.287Z,83.80
2023-01-08T17:49:17.848Z,83.80
2023-01-08T17:51:45.824Z,83.90
2023-01-08T17:54:15.247Z,83.90
2023-01-08T17:56:43.521Z,83.70
2023-01-08T17:59:13.791Z,83.60
2023-01-08T18:01:41.038Z,83.40
2023-01-08T18:04:08.121Z,83.40
2023-01-08T18:06:35.903Z,83.30
2023-01-08T18:09:03.870Z,83.40
2023-01-08T18:11:31.316Z,83.30
2023-01-08T18:14:00.444Z,83.70
2023-01-08T18:16:28.462Z,82.90
2023-01-08T18:18:57.341Z,82.80
2023-01-08T18:21:25.482Z,82.90
2023-01-08T18:23:52.894Z,82.60
2023-01-08T18:26:21.246Z,83.10
2023-01-08T18:28:50.893Z,82.30
2023-01-08T18:31:18.116Z,82.50
2023-01-08T18:33:45.250Z,82.50
2023-01-08T18:36:13.084Z,82.20
2023-01-08T18:38:42.623Z,82.10
2023-01-08T18:41:12.277Z,82.20
2023-01-08T18:43:39.334Z,82.30
2023-01-08T18:46:07.909Z,82.20
2023-01-08T18:48:35.329Z,82.90
2023-01-08T18:51:05.538Z,82.30
2023-01-08T18:53:33.665Z,82.20
2023-01-08T18:56:01.568Z,82.60
2023-01-08T18:58:29.428Z,83.10
2023-01-08T19:01:03.618Z,83.40
2023-01-08T19:03:30.912Z,83.50
2023-01-08T19:05:58.205Z,83.40
2023-01-08T19:08:25.456Z,83.30
2023-01-08T19:10:52.535Z,83.40
2023-01-08T19:13:20.091Z,83.30
2023-01-08T19:15:47.239Z,83.30
2023-01-08T19:18:14.352Z,83.40
2023-01-08T19:20:46.219Z,83.50
2023-01-08T19:23:14.784Z,83.80
2023-01-08T19:25:42.747Z,83.80
2023-01-08T19:28:09.837Z,83.70
2023-01-08T19:30:37.529Z,84.30
2023-01-08T19:33:04.606Z,83.30
2023-01-08T19:35:32.371Z,83.80
2023-01-08T19:37:59.494Z,83.80
2023-01-08T19:40:26.544Z,83.20
2023-01-08T19:43:12.314Z,83.00
2023-01-08T19:45:39.424Z,83.10
2023-01-08T19:48:06.875Z,83.20
2023-01-08T19:50:36.771Z,83.30
2023-01-08T19:53:04.663Z,83.30
2023-01-08T19:55:31.992Z,83.40
2023-01-08T19:57:59.726Z,83.60
2023-01-08T20:00:26.951Z,83.60
2023-01-08T20:02:54.013Z,83.60
2023-01-08T20:05:21.131Z,83.60
2023-01-08T20:07:51.709Z,83.70
2023-01-08T20:10:18.871Z,83.70
2023-01-08T20:12:45.919Z,83.50
2023-01-08T20:15:13.915Z,83.40
2023-01-08T20:17:42.495Z,83.40
2023-01-08T20:20:12.779Z,83.30
2023-01-08T20:22:39.871Z,83.30
2023-01-08T20:25:07.442Z,83.00
2023-01-08T20:27:34.492Z,82.80
2023-01-08T20:30:01.653Z,82.70
2023-01-08T20:32:28.856Z,82.60
2023-01-08T20:34:55.912Z,82.50
2023-01-08T20:37:23.031Z,82.30
2023-01-08T20:39:50.207Z,82.20
2023-01-08T20:42:17.761Z,82.00
2023-01-08T20:44:54.488Z,81.90
2023-01-08T20:47:21.596Z,82.00
2023-01-08T20:49:48.648Z,82.00
2023-01-08T20:52:16.364Z,81.90
2023-01-08T20:54:43.477Z,81.90
2023-01-08T20:57:10.729Z,82.30
2023-01-08T20:59:37.875Z,82.20
2023-01-08T21:02:05.970Z,81.90
2023-01-08T21:04:33.564Z,82.20
2023-01-08T21:07:00.684Z,82.20
2023-01-08T21:09:28.346Z,82.40
2023-01-08T21:11:55.445Z,82.40
2023-01-08T21:14:22.541Z,82.30
2023-01-08T21:16:49.594Z,82.10
2023-01-08T21:19:16.726Z,82.00
2023-01-08T21:21:43.835Z,82.00
2023-01-08T21:24:12.566Z,81.80
2023-01-08T21:26:39.690Z,81.90
2023-01-08T21:29:07.880Z,81.90
2023-01-08T21:31:36.095Z,82.30
2023-01-08T21:34:04.487Z,82.00
2023-01-08T21:36:34.011Z,82.20
2023-01-08T21:39:01.702Z,82.10
2023-01-08T21:41:56.411Z,82.30
2023-01-08T21:44:43.873Z,82.70
2023-01-08T21:47:16.843Z,82.80
2023-01-08T21:49:45.827Z,82.30
2023-01-08T21:52:31.854Z,82.50
2023-01-08T21:54:59.001Z,82.40
2023-01-08T21:57:29.222Z,82.40
2023-01-08T21:59:56.900Z,82.30
2023-01-08T22:02:24.800Z,82.30
2023-01-08T22:04:55.163Z,82.50
2023-01-08T22:07:22.694Z,82.70
2023-01-08T22:09:49.757Z,82.60
2023-01-08T22:12:17.028Z,82.20
2023-01-08T22:14:44.331Z,81.80
2023-01-08T22:17:11.516Z,81.80
2023-01-08T22:19:39.293Z,81.80
2023-01-08T22:22:10.258Z,81.80
2023-01-08T22:24:38.985Z,81.50
2023-01-08T22:27:07.834Z,81.30
2023-01-08T22:29:35.884Z,81.40
2023-01-08T22:32:03.288Z,81.60
2023-01-08T22:34:32.010Z,81.90
2023-01-08T22:36:59.156Z,81.90
2023-01-08T22:39:26.356Z,81.90
2023-01-08T22:41:53.444Z,81.90
2023-01-08T22:44:20.482Z,82.00
2023-01-08T22:46:47.753Z,81.90
2023-01-08T22:49:15.032Z,81.80
2023-01-08T22:51:45.151Z,81.80
2023-01-08T22:54:13.688Z,81.60
2023-01-08T22:56:41.061Z,82.30
2023-01-08T22:59:08.206Z,81.70
2023-01-08T23:01:35.640Z,81.70
2023-01-08T23:04:03.383Z,81.70
2023-01-08T23:06:31.462Z,81.80
2023-01-08T23:08:59.101Z,81.30
2023-01-08T23:11:26.995Z,81.40
2023-01-08T23:13:55.014Z,81.60
2023-01-08T23:16:24.801Z,81.50
2023-01-08T23:18:53.979Z,81.90
2023-01-08T23:21:23.245Z,82.20
2023-01-08T23:23:51.154Z,82.50
2023-01-08T23:26:26.756Z,82.20
2023-01-08T23:28:55.041Z,82.00
2023-01-08T23:31:24.565Z,81.80
2023-01-08T23:33:52.239Z,81.80
2023-01-08T23:36:21.229Z,81.70
2023-01-08T23:38:50.292Z,81.70
2023-01-08T23:41:18.494Z,82.10
2023-01-08T23:43:46.158Z,82.20
2023-01-08T23:46:13.685Z,82.30
2023-01-08T23:48:41.080Z,82.10
2023-01-08T23:51:08.425Z,81.90
2023-01-08T23:53:35.755Z,82.00
2023-01-08T23:56:02.849Z,82.00
2023-01-08T23:58:30.015Z,82.20
